createdAt,value
2023-01-30T00:02:27.741Z,4.00
2023-01-30T00:04:57.625Z,4.33
2023-01-30T00:07:27.423Z,4.30
2023-01-30T00:09:59.981Z,4.13
2023-01-30T00:12:29.731Z,4.40
2023-01-30T00:14:59.526Z,4.70
2023-01-30T00:17:29.428Z,4.40
2023-01-30T00:19:59.269Z,4.90
2023-01-30T00:22:29.400Z,4.73
2023-01-30T00:25:01.943Z,4.57
2023-01-30T00:27:32.716Z,5.20
2023-01-30T00:30:04.613Z,5.10
2023-01-30T00:32:34.567Z,4.60
2023-01-30T00:35:04.446Z,5.30
2023-01-30T00:37:34.330Z,5.30
2023-01-30T00:40:07.339Z,4.57
2023-01-30T00:42:49.518Z,5.10
2023-01-30T00:45:31.902Z,5.17
2023-01-30T00:48:03.112Z,5.60
2023-01-30T00:50:42.747Z,5.50
2023-01-30T00:53:13.474Z,5.50
2023-01-30T00:55:46.209Z,5.37
2023-01-30T00:58:16.906Z,5.63
2023-01-30T01:00:46.784Z,5.50
2023-01-30T01:03:16.907Z,4.90
2023-01-30T01:05:47.396Z,5.53
2023-01-30T01:08:17.666Z,5.93
2023-01-30T01:10:50.091Z,5.43
2023-01-30T01:13:19.881Z,5.87
2023-01-30T01:15:49.713Z,6.03
2023-01-30T01:18:19.715Z,6.73
2023-01-30T01:20:49.519Z,6.00
2023-01-30T01:23:19.330Z,5.87
2023-01-30T01:25:51.710Z,6.00
2023-01-30T01:28:22.383Z,6.10
2023-01-30T01:30:52.283Z,6.47
2023-01-30T01:33:22.119Z,5.87
2023-01-30T01:35:51.994Z,6.67
2023-01-30T01:38:21.750Z,6.30
2023-01-30T01:41:03.628Z,6.07
2023-01-30T01:43:36.441Z,6.20
2023-01-30T01:46:12.978Z,6.90
2023-01-30T01:48:47.818Z,6.77
2023-01-30T01:51:22.111Z,6.93
2023-01-30T01:53:57.602Z,6.80
2023-01-30T01:56:30.961Z,7.47
2023-01-30T01:59:06.296Z,6.07
2023-01-30T02:01:36.643Z,6.30
2023-01-30T02:04:10.071Z,6.37
2023-01-30T02:06:40.878Z,6.57
2023-01-30T02:09:13.091Z,6.13
2023-01-30T02:11:50.722Z,7.30
2023-01-30T02:14:22.501Z,6.30
2023-01-30T02:16:52.263Z,6.53
2023-01-30T02:19:28.858Z,5.73
2023-01-30T02:22:20.618Z,6.17
2023-01-30T02:25:21.316Z,5.80
2023-01-30T02:28:21.857Z,6.60
2023-01-30T02:31:18.733Z,5.67
2023-01-30T02:34:00.373Z,6.10
2023-01-30T02:36:41.432Z,5.70
2023-01-30T02:39:22.338Z,5.60
2023-01-30T02:42:03.587Z,6.37
2023-01-30T02:44:40.462Z,5.67
2023-01-30T02:47:17.670Z,5.17
2023-01-30T02:49:52.808Z,5.90
2023-01-30T02:52:24.281Z,6.53
2023-01-30T02:54:54.074Z,5.23
2023-01-30T02:57:25.729Z,5.20
2023-01-30T02:59:59.402Z,4.63
2023-01-30T03:02:53.009Z,5.20
2023-01-30T03:05:40.309Z,5.37
2023-01-30T03:08:20.399Z,5.37
2023-01-30T03:10:58.290Z,5.37
2023-01-30T03:13:38.886Z,4.97
2023-01-30T03:16:12.706Z,4.77
2023-01-30T03:18:47.740Z,4.80
2023-01-30T03:21:17.664Z,4.43
2023-01-30T03:23:49.140Z,4.40
2023-01-30T03:26:22.840Z,4.40
2023-01-30T03:28:53.969Z,4.33
2023-01-30T03:31:23.920Z,4.37
2023-01-30T03:33:56.495Z,4.90
2023-01-30T03:36:26.924Z,5.20
2023-01-30T03:38:56.823Z,4.97
2023-01-30T03:41:27.081Z,5.17
2023-01-30T03:43:56.947Z,4.93
2023-01-30T03:46:26.941Z,6.43
2023-01-30T03:48:59.451Z,4.90
2023-01-30T03:51:29.224Z,5.07
2023-01-30T03:53:59.010Z,4.73
2023-01-30T03:56:28.814Z,5.13
2023-01-30T03:58:58.590Z,5.13
2023-01-30T04:01:28.443Z,5.27
2023-01-30T04:04:00.927Z,4.23
2023-01-30T04:06:30.695Z,5.20
2023-01-30T04:09:00.474Z,5.93
2023-01-30T04:11:30.216Z,4.77
2023-01-30T04:14:00.111Z,5.00
2023-01-30T04:16:30.672Z,5.50
2023-01-30T04:19:03.079Z,5.17
2023-01-30T04:21:32.847Z,4.93
2023-01-30T04:24:02.658Z,4.50
2023-01-30T04:26:32.555Z,4.30
2023-01-30T04:29:02.483Z,4.40
2023-01-30T04:31:32.427Z,5.17
2023-01-30T04:34:04.870Z,4.33
2023-01-30T04:36:34.654Z,4.77
2023-01-30T04:39:04.437Z,5.27
2023-01-30T04:41:34.313Z,5.17
2023-01-30T04:44:04.174Z,4.73
2023-01-30T04:46:34.011Z,4.30
2023-01-30T04:49:06.481Z,4.63
2023-01-30T04:51:36.298Z,4.53
2023-01-30T04:54:06.721Z,4.30
2023-01-30T04:56:36.723Z,4.03
2023-01-30T04:59:06.737Z,4.50
2023-01-30T05:01:38.522Z,5.43
2023-01-30T05:04:11.588Z,4.97
2023-01-30T05:06:41.544Z,5.03
2023-01-30T05:09:11.349Z,5.43
2023-01-30T05:11:41.227Z,4.30
2023-01-30T05:14:11.039Z,4.50
2023-01-30T05:16:40.783Z,5.27
2023-01-30T05:19:15.556Z,5.17
2023-01-30T05:21:45.385Z,4.90
2023-01-30T05:24:15.178Z,4.73
2023-01-30T05:26:45.065Z,5.03
2023-01-30T05:29:14.902Z,4.97
2023-01-30T05:31:44.770Z,5.00
2023-01-30T05:34:17.418Z,4.63
2023-01-30T05:36:47.236Z,5.37
2023-01-30T05:39:17.232Z,4.40
2023-01-30T05:41:47.103Z,4.87
2023-01-30T05:44:17.009Z,4.77
2023-01-30T05:46:46.889Z,5.17
2023-01-30T05:49:19.468Z,4.80
2023-01-30T05:51:51.431Z,5.07
2023-01-30T05:54:21.426Z,5.37
2023-01-30T05:56:52.390Z,5.07
2023-01-30T05:59:23.599Z,5.03
2023-01-30T06:01:53.641Z,4.97
2023-01-30T06:04:26.178Z,4.37
2023-01-30T06:06:55.982Z,4.87
2023-01-30T06:09:25.786Z,5.33
2023-01-30T06:11:55.888Z,4.67
2023-01-30T06:14:25.794Z,4.83
2023-01-30T06:16:55.787Z,5.27
2023-01-30T06:19:28.295Z,5.03
2023-01-30T06:21:58.226Z,4.90
2023-01-30T06:24:28.202Z,4.97
2023-01-30T06:26:58.078Z,5.20
2023-01-30T06:29:27.973Z,5.10
2023-01-30T06:31:57.730Z,5.23
2023-01-30T06:34:30.219Z,4.53
2023-01-30T06:37:00.039Z,4.67
2023-01-30T06:39:29.927Z,5.00
2023-01-30T06:41:59.765Z,5.47
2023-01-30T06:44:29.651Z,4.60
2023-01-30T06:46:59.494Z,5.47
2023-01-30T06:49:31.928Z,5.23
2023-01-30T06:52:01.798Z,4.00
2023-01-30T06:54:31.606Z,4.50
2023-01-30T06:57:01.421Z,5.17
2023-01-30T06:59:31.316Z,5.17
2023-01-30T07:02:01.186Z,4.90
2023-01-30T07:04:33.655Z,4.83
2023-01-30T07:07:06.837Z,4.33
2023-01-30T07:09:37.100Z,5.07
2023-01-30T07:12:07.275Z,5.77
2023-01-30T07:14:37.134Z,4.63
2023-01-30T07:17:06.938Z,6.07
2023-01-30T07:19:39.662Z,5.10
2023-01-30T07:22:09.556Z,5.33
2023-01-30T07:24:40.037Z,5.10
2023-01-30T07:27:10.214Z,4.83
2023-01-30T07:29:40.890Z,4.60
2023-01-30T07:32:15.001Z,5.63
2023-01-30T07:34:47.597Z,4.83
2023-01-30T07:37:17.989Z,5.17
2023-01-30T07:39:47.768Z,5.40
2023-01-30T07:42:17.540Z,5.07
2023-01-30T07:44:47.397Z,4.70
2023-01-30T07:47:19.522Z,5.03
2023-01-30T07:49:51.910Z,5.70
2023-01-30T07:52:21.679Z,5.23
2023-01-30T07:54:53.044Z,4.73
2023-01-30T07:57:22.794Z,4.77
2023-01-30T07:59:52.552Z,5.37
2023-01-30T08:02:22.307Z,5.17
2023-01-30T08:04:54.973Z,5.53
2023-01-30T08:07:24.805Z,4.90
2023-01-30T08:09:54.604Z,5.27
2023-01-30T08:12:24.377Z,4.63
2023-01-30T08:14:54.193Z,5.47
2023-01-30T08:17:23.994Z,5.53
2023-01-30T08:19:56.373Z,5.57
2023-01-30T08:22:26.119Z,4.77
2023-01-30T08:24:55.879Z,4.57
2023-01-30T08:27:25.666Z,4.10
2023-01-30T08:29:55.475Z,4.83
2023-01-30T08:32:25.259Z,5.10
2023-01-30T08:34:57.630Z,4.53
2023-01-30T08:37:27.371Z,4.93
2023-01-30T08:39:57.131Z,4.50
2023-01-30T08:42:26.977Z,4.73
2023-01-30T08:44:56.704Z,5.53
2023-01-30T08:47:26.617Z,5.60
2023-01-30T08:49:58.992Z,4.47
2023-01-30T08:52:28.765Z,3.97
2023-01-30T08:54:58.523Z,4.73
2023-01-30T08:57:28.343Z,4.80
2023-01-30T08:59:58.101Z,5.23
2023-01-30T09:02:27.896Z,5.03
2023-01-30T09:05:00.347Z,4.93
2023-01-30T09:07:30.624Z,4.73
2023-01-30T09:10:00.408Z,5.07
2023-01-30T09:12:30.229Z,4.90
2023-01-30T09:15:00.764Z,5.27
2023-01-30T09:17:30.547Z,4.93
2023-01-30T09:20:02.915Z,4.53
2023-01-30T09:22:32.695Z,5.20
2023-01-30T09:25:02.494Z,5.90
2023-01-30T09:27:32.273Z,5.20
2023-01-30T09:30:02.037Z,5.47
2023-01-30T09:32:31.779Z,5.50
2023-01-30T09:35:04.153Z,5.03
2023-01-30T09:37:34.040Z,6.53
2023-01-30T09:40:04.575Z,5.93
2023-01-30T09:42:57.714Z,5.70
2023-01-30T09:45:50.703Z,5.33
2023-01-30T09:48:28.701Z,5.77
2023-01-30T09:51:22.980Z,6.30
2023-01-30T09:54:10.605Z,5.83
2023-01-30T09:56:40.377Z,5.30
2023-01-30T09:59:17.730Z,5.83
2023-01-30T10:01:54.413Z,5.83
2023-01-30T10:04:32.371Z,6.27
2023-01-30T10:07:11.399Z,5.50
2023-01-30T10:09:49.621Z,5.97
2023-01-30T10:12:34.155Z,6.80
2023-01-30T10:15:34.974Z,3.60
2023-01-30T10:18:38.484Z,3.23
2023-01-30T10:21:19.356Z,3.03
2023-01-30T10:24:07.444Z,3.00
2023-01-30T10:26:37.688Z,4.47
2023-01-30T10:29:14.081Z,3.60
2023-01-30T10:31:48.878Z,3.97
2023-01-30T10:34:23.959Z,2.50
2023-01-30T10:37:00.750Z,2.57
2023-01-30T10:39:49.703Z,2.77
2023-01-30T10:42:30.734Z,3.53
2023-01-30T10:45:09.972Z,3.20
2023-01-30T10:48:05.442Z,3.27
2023-01-30T10:50:46.883Z,4.33
2023-01-30T10:53:24.267Z,3.43
2023-01-30T10:56:06.472Z,4.30
2023-01-30T10:58:43.247Z,4.50
2023-01-30T11:01:20.422Z,4.10
2023-01-30T11:03:56.013Z,4.27
2023-01-30T11:06:27.291Z,3.30
2023-01-30T11:08:58.510Z,3.40
2023-01-30T11:11:34.101Z,4.07
2023-01-30T11:14:08.711Z,4.20
2023-01-30T11:16:47.332Z,3.70
2023-01-30T11:19:21.636Z,4.33
2023-01-30T11:21:53.798Z,5.13
2023-01-30T11:24:31.463Z,5.40
2023-01-30T11:27:13.042Z,3.97
2023-01-30T11:29:43.124Z,3.43
2023-01-30T11:32:17.751Z,3.57
2023-01-30T11:34:47.734Z,3.70
2023-01-30T11:37:29.658Z,2.87
2023-01-30T11:39:59.656Z,3.07
2023-01-30T11:42:34.512Z,4.00
2023-01-30T11:45:17.214Z,3.67
2023-01-30T11:47:57.850Z,4.07
2023-01-30T11:50:36.282Z,4.30
2023-01-30T11:53:19.737Z,4.60
2023-01-30T11:56:02.539Z,3.67
2023-01-30T11:58:38.338Z,4.87
2023-01-30T12:01:10.748Z,3.50
2023-01-30T12:03:50.221Z,4.53
2023-01-30T12:06:28.470Z,3.80
2023-01-30T12:08:58.477Z,5.03
2023-01-30T12:11:31.895Z,4.53
2023-01-30T12:14:30.040Z,5.13
2023-01-30T12:17:07.759Z,4.53
2023-01-30T12:19:49.600Z,5.53
2023-01-30T12:22:34.962Z,5.13
2023-01-30T12:25:12.269Z,5.30
2023-01-30T12:30:42.444Z,5.53
2023-01-30T12:35:59.346Z,5.37
2023-01-30T12:38:42.408Z,5.47
2023-01-30T12:41:27.187Z,4.83
2023-01-30T12:44:10.391Z,5.47
2023-01-30T12:46:58.282Z,5.67
2023-01-30T12:49:39.023Z,5.33
2023-01-30T12:52:31.976Z,5.83
2023-01-30T12:55:10.820Z,5.30
2023-01-30T12:57:47.240Z,5.70
2023-01-30T13:00:35.408Z,5.50
2023-01-30T13:03:22.608Z,4.63
2023-01-30T13:05:58.566Z,6.07
2023-01-30T13:08:42.838Z,5.50
2023-01-30T13:11:29.164Z,5.83
2023-01-30T13:14:07.880Z,5.60
2023-01-30T13:16:48.985Z,5.77
2023-01-30T13:19:31.162Z,5.77
2023-01-30T13:22:15.961Z,5.47
2023-01-30T13:24:58.896Z,6.03
2023-01-30T13:27:32.378Z,6.70
2023-01-30T13:30:11.997Z,6.80
2023-01-30T13:32:46.386Z,6.10
2023-01-30T13:35:23.995Z,6.57
2023-01-30T13:37:55.228Z,6.73
2023-01-30T13:40:29.021Z,6.43
2023-01-30T13:43:03.563Z,6.70
2023-01-30T13:45:36.206Z,6.90
2023-01-30T13:48:20.115Z,6.30
2023-01-30T13:51:09.135Z,5.93
2023-01-30T13:53:46.228Z,7.63
2023-01-30T13:56:40.674Z,7.40
2023-01-30T13:59:20.204Z,6.40
2023-01-30T14:02:20.989Z,7.00
2023-01-30T14:04:55.419Z,6.20
2023-01-30T14:07:31.477Z,6.47
2023-01-30T14:10:17.660Z,6.47
2023-01-30T14:12:49.777Z,6.73
2023-01-30T14:15:29.101Z,6.97
2023-01-30T14:18:05.531Z,5.60
2023-01-30T14:20:37.219Z,5.73
2023-01-30T14:23:25.002Z,6.53
2023-01-30T14:25:56.748Z,5.33
2023-01-30T14:28:56.212Z,6.20
2023-01-30T14:31:48.730Z,6.47
2023-01-30T14:34:53.811Z,6.07
2023-01-30T14:37:51.284Z,6.83
2023-01-30T14:40:36.855Z,6.07
2023-01-30T14:43:38.099Z,5.73
2023-01-30T14:46:09.861Z,5.43
2023-01-30T14:48:45.667Z,2.90
2023-01-30T14:51:22.687Z,4.47
2023-01-30T14:53:59.682Z,4.23
2023-01-30T14:56:44.386Z,3.53
2023-01-30T14:59:24.614Z,4.13
2023-01-30T15:02:04.227Z,4.37
2023-01-30T15:04:36.501Z,5.20
2023-01-30T15:07:11.976Z,4.87
2023-01-30T15:09:45.189Z,5.47
2023-01-30T15:12:49.102Z,6.27
2023-01-30T15:15:27.028Z,5.30
2023-01-30T15:18:14.156Z,6.43
2023-01-30T15:20:58.029Z,5.50
2023-01-30T15:23:54.513Z,5.37
2023-01-30T15:26:41.497Z,5.40
2023-01-30T15:29:33.038Z,4.50
2023-01-30T15:32:05.234Z,4.13
2023-01-30T15:34:36.189Z,4.53
2023-01-30T15:37:05.979Z,4.67
2023-01-30T15:39:35.752Z,4.83
2023-01-30T15:42:10.698Z,4.40
2023-01-30T15:44:58.033Z,5.07
2023-01-30T15:47:56.341Z,4.07
2023-01-30T15:50:26.323Z,4.30
2023-01-30T15:52:57.617Z,5.13
2023-01-30T15:55:29.937Z,4.70
2023-01-30T15:58:04.102Z,4.67
2023-01-30T16:00:39.269Z,5.43
2023-01-30T16:03:14.726Z,5.00
2023-01-30T16:05:50.278Z,5.77
2023-01-30T16:08:26.613Z,4.93
2023-01-30T16:10:56.635Z,5.27
2023-01-30T16:13:27.317Z,5.83
2023-01-30T16:16:05.140Z,5.60
2023-01-30T16:18:39.847Z,5.77
2023-01-30T16:21:13.030Z,5.33
2023-01-30T16:23:46.531Z,5.97
2023-01-30T16:26:22.026Z,5.17
2023-01-30T16:28:53.984Z,5.40
2023-01-30T16:31:27.611Z,5.13
2023-01-30T16:33:57.595Z,6.00
2023-01-30T16:36:36.117Z,5.50
2023-01-30T16:39:06.318Z,5.47
2023-01-30T16:41:39.782Z,5.13
2023-01-30T16:44:12.132Z,5.27
2023-01-30T16:47:07.748Z,5.60
2023-01-30T16:49:49.022Z,5.47
2023-01-30T16:52:23.162Z,5.50
2023-01-30T16:54:56.012Z,3.90
2023-01-30T16:57:36.510Z,3.63
2023-01-30T17:00:22.664Z,3.73
2023-01-30T17:02:58.662Z,3.67
2023-01-30T17:05:31.256Z,4.27
2023-01-30T17:08:01.391Z,4.53
2023-01-30T17:10:56.493Z,4.17
2023-01-30T17:13:38.013Z,4.33
2023-01-30T17:16:33.648Z,5.00
2023-01-30T17:19:06.054Z,5.27
2023-01-30T17:21:48.203Z,5.37
2023-01-30T17:24:20.181Z,4.90
2023-01-30T17:26:53.058Z,5.47
2023-01-30T17:29:41.451Z,6.07
2023-01-30T17:32:19.857Z,6.07
2023-01-30T17:34:52.433Z,5.93
2023-01-30T17:37:24.200Z,6.03
2023-01-30T17:39:54.257Z,6.47
2023-01-30T17:42:24.107Z,6.43
2023-01-30T17:44:54.216Z,6.60
2023-01-30T17:47:24.046Z,5.93
2023-01-30T17:49:56.708Z,4.37
2023-01-30T17:52:26.497Z,4.63
2023-01-30T17:54:56.248Z,3.90
2023-01-30T17:57:26.153Z,5.20
2023-01-30T17:59:56.119Z,4.90
2023-01-30T18:02:28.240Z,4.17
2023-01-30T18:05:00.680Z,4.43
2023-01-30T18:07:32.345Z,4.43
2023-01-30T18:10:02.160Z,4.13
2023-01-30T18:12:31.902Z,3.63
2023-01-30T18:15:01.670Z,4.30
2023-01-30T18:17:32.623Z,5.07
2023-01-30T18:20:05.191Z,4.87
2023-01-30T18:22:34.957Z,4.23
2023-01-30T18:25:04.767Z,10.17
2023-01-30T18:27:34.628Z,4.80
2023-01-30T18:30:04.441Z,5.20
2023-01-30T18:32:37.639Z,5.30
2023-01-30T18:35:11.043Z,4.50
2023-01-30T18:37:40.922Z,4.70
2023-01-30T18:40:13.799Z,4.80
2023-01-30T18:42:43.965Z,4.60
2023-01-30T18:45:14.073Z,4.37
2023-01-30T18:47:43.853Z,6.00
2023-01-30T18:50:16.493Z,4.13
2023-01-30T18:52:47.517Z,4.10
2023-01-30T18:55:18.813Z,4.17
2023-01-30T18:57:48.617Z,4.43
2023-01-30T19:00:19.706Z,4.17
2023-01-30T19:02:53.957Z,4.27
2023-01-30T19:05:26.475Z,5.00
2023-01-30T19:07:56.604Z,4.43
2023-01-30T19:10:26.371Z,5.40
2023-01-30T19:13:08.570Z,4.63
2023-01-30T19:15:38.918Z,5.47
2023-01-30T19:18:08.980Z,5.03
2023-01-30T19:20:41.414Z,5.10
2023-01-30T19:23:11.379Z,5.07
2023-01-30T19:25:41.253Z,5.07
2023-01-30T19:28:11.067Z,4.50
2023-01-30T19:30:41.190Z,4.57
2023-01-30T19:33:11.095Z,4.37
2023-01-30T19:35:44.014Z,4.90
2023-01-30T19:38:13.854Z,5.03
2023-01-30T19:40:44.895Z,5.87
2023-01-30T19:43:16.361Z,5.23
2023-01-30T19:45:46.228Z,4.53
2023-01-30T19:48:16.169Z,4.77
2023-01-30T19:50:50.504Z,3.70
2023-01-30T19:53:21.068Z,3.57
2023-01-30T19:55:54.100Z,3.50
2023-01-30T19:58:24.188Z,4.23
2023-01-30T20:00:54.291Z,4.73
2023-01-30T20:03:24.192Z,4.90
2023-01-30T20:05:56.765Z,4.80
2023-01-30T20:08:32.558Z,4.67
2023-01-30T20:11:08.202Z,4.60
2023-01-30T20:13:38.999Z,4.93
2023-01-30T20:16:09.916Z,4.27
2023-01-30T20:18:40.951Z,4.50
2023-01-30T20:21:15.841Z,5.30
2023-01-30T20:23:46.621Z,4.07
2023-01-30T20:26:18.976Z,3.80
2023-01-30T20:28:49.431Z,4.17
2023-01-30T20:31:21.948Z,5.20
2023-01-30T20:33:52.885Z,4.07
2023-01-30T20:36:26.042Z,4.73
2023-01-30T20:38:56.902Z,3.90
2023-01-30T20:41:28.885Z,3.80
2023-01-30T20:44:00.848Z,4.37
2023-01-30T20:46:33.905Z,4.27
2023-01-30T20:49:04.394Z,3.97
2023-01-30T20:51:38.394Z,4.20
2023-01-30T20:54:10.957Z,3.73
2023-01-30T20:56:43.175Z,3.83
2023-01-30T20:59:15.104Z,3.93
2023-01-30T21:01:45.555Z,3.77
2023-01-30T21:04:17.739Z,3.93
2023-01-30T21:06:50.367Z,4.07
2023-01-30T21:09:22.269Z,4.03
2023-01-30T21:11:53.431Z,4.27
2023-01-30T21:14:25.039Z,4.27
2023-01-30T21:16:56.476Z,4.07
2023-01-30T21:19:26.317Z,4.40
2023-01-30T21:21:59.603Z,3.77
2023-01-30T21:24:31.342Z,4.67
2023-01-30T21:27:01.111Z,3.67
2023-01-30T21:29:32.767Z,3.73
2023-01-30T21:32:02.676Z,4.13
2023-01-30T21:34:33.391Z,4.00
2023-01-30T21:37:18.238Z,4.63
2023-01-30T21:40:00.426Z,4.80
2023-01-30T21:42:42.584Z,4.17
2023-01-30T21:45:12.593Z,4.57
2023-01-30T21:47:42.725Z,4.23
2023-01-30T21:50:13.659Z,4.67
2023-01-30T21:52:46.087Z,4.60
2023-01-30T21:55:15.993Z,5.77
2023-01-30T21:57:45.953Z,4.77
2023-01-30T22:00:17.354Z,5.00
2023-01-30T22:02:47.573Z,4.23
2023-01-30T22:05:18.209Z,5.17
2023-01-30T22:07:50.955Z,4.50
2023-01-30T22:10:20.963Z,4.90
2023-01-30T22:12:50.781Z,4.20
2023-01-30T22:15:21.964Z,4.27
2023-01-30T22:17:52.022Z,4.20
2023-01-30T22:20:21.914Z,4.00
2023-01-30T22:22:54.950Z,4.50
2023-01-30T22:25:24.797Z,3.93
2023-01-30T22:27:54.588Z,4.53
2023-01-30T22:30:24.671Z,3.47
2023-01-30T22:32:56.533Z,3.77
2023-01-30T22:35:26.428Z,3.43
2023-01-30T22:37:58.989Z,3.93
2023-01-30T22:40:28.947Z,4.40
2023-01-30T22:42:58.822Z,3.80
2023-01-30T22:45:28.730Z,3.83
2023-01-30T22:47:58.778Z,4.60
2023-01-30T22:50:28.844Z,4.13
2023-01-30T22:53:01.484Z,3.80
2023-01-30T22:55:31.337Z,3.73
2023-01-30T22:58:01.186Z,3.93
2023-01-30T23:00:31.026Z,4.20
2023-01-30T23:03:00.890Z,3.80
2023-01-30T23:05:30.730Z,5.20
2023-01-30T23:08:03.266Z,4.20
2023-01-30T23:10:33.116Z,3.57
2023-01-30T23:13:15.465Z,4.63
2023-01-30T23:15:46.910Z,3.43
2023-01-30T23:18:29.851Z,4.10
2023-01-30T23:20:59.725Z,4.70
2023-01-30T23:23:32.168Z,4.60
2023-01-30T23:26:04.624Z,3.47
2023-01-30T23:28:34.463Z,3.87
2023-01-30T23:31:09.027Z,4.33
2023-01-30T23:33:39.003Z,4.60
2023-01-30T23:36:11.138Z,4.30
2023-01-30T23:38:44.408Z,4.27
2023-01-30T23:41:16.095Z,4.07
2023-01-30T23:43:47.590Z,3.93
2023-01-30T23:46:20.719Z,3.87
2023-01-30T23:48:52.046Z,3.13
2023-01-30T23:51:24.102Z,4.17
2023-01-30T23:53:57.119Z,3.93
2023-01-30T23:56:28.904Z,3.70
2023-01-30T23:58:59.747Z,3.53
